sensor_id;sensor_type;location;lat;lon;timestamp;P1;durP1;ratioP1;P2;durP2;ratioP2
3341;SDS011;1684;50.748;6.154;2023-05-07T00:00:11;5.37;;;3.97;;
3341;SDS011;1684;50.748;6.154;2023-05-07T00:02:41;5.80;;;4.50;;
3341;SDS011;1684;50.748;6.154;2023-05-07T00:05:11;5.67;;;4.00;;
3341;SDS011;1684;50.748;6.154;2023-05-07T00:07:40;4.70;;;3.70;;
3341;SDS011;1684;50.748;6.154;2023-05-07T00:10:10;4.80;;;3.60;;
3341;SDS011;1684;50.748;6.154;2023-05-07T00:12:39;6.10;;;4.60;;
3341;SDS011;1684;50.748;6.154;2023-05-07T00:15:08;6.80;;;4.37;;
3341;SDS011;1684;50.748;6.154;2023-05-07T00:17:37;5.87;;;4.13;;
3341;SDS011;1684;50.748;6.154;2023-05-07T00:20:06;5.00;;;4.00;;
3341;SDS011;1684;50.748;6.154;2023-05-07T00:22:34;4.90;;;4.17;;
3341;SDS011;1684;50.748;6.154;2023-05-07T00:25:03;5.30;;;3.77;;
3341;SDS011;1684;50.748;6.154;2023-05-07T00:27:33;4.83;;;4.10;;
3341;SDS011;1684;50.748;6.154;2023-05-07T00:30:01;5.50;;;3.83;;
3341;SDS011;1684;50.748;6.154;2023-05-07T00:32:29;6.40;;;3.90;;
3341;SDS011;1684;50.748;6.154;2023-05-07T00:34:58;6.77;;;4.40;;
3341;SDS011;1684;50.748;6.154;2023-05-07T00:37:26;4.73;;;4.23;;
3341;SDS011;1684;50.748;6.154;2023-05-07T00:39:54;5.80;;;4.03;;
3341;SDS011;1684;50.748;6.154;2023-05-07T00:42:22;5.43;;;4.00;;
3341;SDS011;1684;50.748;6.154;2023-05-07T00:44:52;6.70;;;4.00;;
3341;SDS011;1684;50.748;6.154;2023-05-07T00:47:21;5.47;;;3.70;;
3341;SDS011;1684;50.748;6.154;2023-05-07T00:49:49;5.10;;;3.60;;
3341;SDS011;1684;50.748;6.154;2023-05-07T00:52:18;4.10;;;3.70;;
3341;SDS011;1684;50.748;6.154;2023-05-07T00:54:47;5.87;;;3.30;;
3341;SDS011;1684;50.748;6.154;2023-05-07T00:57:16;5.90;;;4.23;;
3341;SDS011;1684;50.748;6.154;2023-05-07T00:59:44;6.20;;;3.77;;
3341;SDS011;1684;50.748;6.154;2023-05-07T01:02:14;5.77;;;3.90;;
3341;SDS011;1684;50.748;6.154;2023-05-07T01:04:42;4.13;;;3.40;;
3341;SDS011;1684;50.748;6.154;2023-05-07T01:07:11;6.20;;;4.00;;
3341;SDS011;1684;50.748;6.154;2023-05-07T01:09:40;5.97;;;3.10;;
3341;SDS011;1684;50.748;6.154;2023-05-07T01:12:08;7.57;;;3.97;;
3341;SDS011;1684;50.748;6.154;2023-05-07T01:14:37;4.90;;;3.93;;
3341;SDS011;1684;50.748;6.154;2023-05-07T01:17:05;6.10;;;3.47;;
3341;SDS011;1684;50.748;6.154;2023-05-07T01:19:36;4.80;;;3.13;;
3341;SDS011;1684;50.748;6.154;2023-05-07T01:22:07;5.07;;;3.20;;
3341;SDS011;1684;50.748;6.154;2023-05-07T01:24:38;5.40;;;3.80;;
3341;SDS011;1684;50.748;6.154;2023-05-07T01:27:06;4.80;;;3.40;;
3341;SDS011;1684;50.748;6.154;2023-05-07T01:29:34;5.17;;;3.30;;
3341;SDS011;1684;50.748;6.154;2023-05-07T01:32:02;4.30;;;3.40;;
3341;SDS011;1684;50.748;6.154;2023-05-07T01:34:31;10.03;;;3.57;;
3341;SDS011;1684;50.748;6.154;2023-05-07T01:37:00;3.83;;;3.00;;
3341;SDS011;1684;50.748;6.154;2023-05-07T01:39:29;7.27;;;4.10;;
3341;SDS011;1684;50.748;6.154;2023-05-07T01:42:00;5.00;;;3.50;;
3341;SDS011;1684;50.748;6.154;2023-05-07T01:44:28;4.33;;;2.93;;
3341;SDS011;1684;50.748;6.154;2023-05-07T01:46:57;5.47;;;3.23;;
3341;SDS011;1684;50.748;6.154;2023-05-07T01:49:26;4.20;;;3.47;;
3341;SDS011;1684;50.748;6.154;2023-05-07T01:51:54;5.10;;;3.37;;
3341;SDS011;1684;50.748;6.154;2023-05-07T01:54:25;4.70;;;3.13;;
3341;SDS011;1684;50.748;6.154;2023-05-07T01:56:55;5.10;;;3.80;;
3341;SDS011;1684;50.748;6.154;2023-05-07T01:59:25;3.93;;;3.20;;
3341;SDS011;1684;50.748;6.154;2023-05-07T02:01:53;6.20;;;3.73;;
3341;SDS011;1684;50.748;6.154;2023-05-07T02:04:22;5.00;;;3.33;;
3341;SDS011;1684;50.748;6.154;2023-05-07T02:06:50;5.13;;;3.57;;
3341;SDS011;1684;50.748;6.154;2023-05-07T02:09:19;4.73;;;3.73;;
3341;SDS011;1684;50.748;6.154;2023-05-07T02:11:47;4.83;;;4.00;;
3341;SDS011;1684;50.748;6.154;2023-05-07T02:14:15;3.90;;;3.33;;
3341;SDS011;1684;50.748;6.154;2023-05-07T02:16:45;5.23;;;3.50;;
3341;SDS011;1684;50.748;6.154;2023-05-07T02:19:13;4.87;;;3.53;;
3341;SDS011;1684;50.748;6.154;2023-05-07T02:21:41;3.97;;;2.90;;
3341;SDS011;1684;50.748;6.154;2023-05-07T02:24:10;4.97;;;3.63;;
3341;SDS011;1684;50.748;6.154;2023-05-07T02:26:39;8.20;;;3.20;;
3341;SDS011;1684;50.748;6.154;2023-05-07T02:29:07;4.63;;;2.70;;
3341;SDS011;1684;50.748;6.154;2023-05-07T02:31:35;4.10;;;3.00;;
3341;SDS011;1684;50.748;6.154;2023-05-07T02:34:05;4.00;;;2.63;;
3341;SDS011;1684;50.748;6.154;2023-05-07T02:36:33;6.83;;;3.07;;
3341;SDS011;1684;50.748;6.154;2023-05-07T02:39:01;5.23;;;2.70;;
3341;SDS011;1684;50.748;6.154;2023-05-07T02:41:30;5.20;;;3.13;;
3341;SDS011;1684;50.748;6.154;2023-05-07T02:43:58;5.63;;;3.10;;
3341;SDS011;1684;50.748;6.154;2023-05-07T02:46:26;3.53;;;3.00;;
3341;SDS011;1684;50.748;6.154;2023-05-07T02:48:55;4.97;;;3.10;;
3341;SDS011;1684;50.748;6.154;2023-05-07T02:51:25;5.67;;;3.13;;
3341;SDS011;1684;50.748;6.154;2023-05-07T02:53:54;7.47;;;3.00;;
3341;SDS011;1684;50.748;6.154;2023-05-07T02:56:22;4.53;;;3.17;;
3341;SDS011;1684;50.748;6.154;2023-05-07T02:58:54;3.83;;;3.20;;
3341;SDS011;1684;50.748;6.154;2023-05-07T03:01:22;5.43;;;3.57;;
3341;SDS011;1684;50.748;6.154;2023-05-07T03:03:51;4.80;;;3.00;;
3341;SDS011;1684;50.748;6.154;2023-05-07T03:06:19;4.43;;;2.70;;
3341;SDS011;1684;50.748;6.154;2023-05-07T03:08:49;4.77;;;3.10;;
3341;SDS011;1684;50.748;6.154;2023-05-07T03:11:17;7.47;;;3.50;;
3341;SDS011;1684;50.748;6.154;2023-05-07T03:13:45;5.80;;;3.53;;
3341;SDS011;1684;50.748;6.154;2023-05-07T03:16:15;5.00;;;3.33;;
3341;SDS011;1684;50.748;6.154;2023-05-07T03:18:43;4.70;;;3.60;;
3341;SDS011;1684;50.748;6.154;2023-05-07T03:21:12;4.23;;;3.23;;
3341;SDS011;1684;50.748;6.154;2023-05-07T03:23:40;3.83;;;2.83;;
3341;SDS011;1684;50.748;6.154;2023-05-07T03:26:09;5.43;;;3.90;;
3341;SDS011;1684;50.748;6.154;2023-05-07T03:28:38;6.07;;;3.77;;
3341;SDS011;1684;50.748;6.154;2023-05-07T03:31:06;4.43;;;3.70;;
3341;SDS011;1684;50.748;6.154;2023-05-07T03:33:34;7.30;;;3.23;;
3341;SDS011;1684;50.748;6.154;2023-05-07T03:36:03;4.07;;;3.03;;
3341;SDS011;1684;50.748;6.154;2023-05-07T03:38:31;7.83;;;3.17;;
3341;SDS011;1684;50.748;6.154;2023-05-07T03:41:00;4.20;;;3.30;;
3341;SDS011;1684;50.748;6.154;2023-05-07T03:43:29;6.37;;;3.30;;
3341;SDS011;1684;50.748;6.154;2023-05-07T03:45:58;4.30;;;3.70;;
3341;SDS011;1684;50.748;6.154;2023-05-07T03:48:26;5.53;;;3.40;;
3341;SDS011;1684;50.748;6.154;2023-05-07T03:50:55;3.90;;;3.10;;
3341;SDS011;1684;50.748;6.154;2023-05-07T03:53:24;8.77;;;3.60;;
3341;SDS011;1684;50.748;6.154;2023-05-07T03:55:52;4.43;;;3.83;;
3341;SDS011;1684;50.748;6.154;2023-05-07T03:58:20;5.73;;;3.80;;
3341;SDS011;1684;50.748;6.154;2023-05-07T04:00:50;5.30;;;3.73;;
3341;SDS011;1684;50.748;6.154;2023-05-07T04:03:18;5.90;;;4.00;;
3341;SDS011;1684;50.748;6.154;2023-05-07T04:05:46;6.73;;;3.63;;
3341;SDS011;1684;50.748;6.154;2023-05-07T04:08:15;4.83;;;3.70;;
3341;SDS011;1684;50.748;6.154;2023-05-07T04:10:43;4.83;;;3.50;;
3341;SDS011;1684;50.748;6.154;2023-05-07T04:13:12;4.40;;;3.90;;
3341;SDS011;1684;50.748;6.154;2023-05-07T04:15:40;7.53;;;3.40;;
3341;SDS011;1684;50.748;6.154;2023-05-07T04:18:09;5.20;;;3.30;;
3341;SDS011;1684;50.748;6.154;2023-05-07T04:20:38;5.73;;;3.70;;
3341;SDS011;1684;50.748;6.154;2023-05-07T04:23:06;7.33;;;3.03;;
3341;SDS011;1684;50.748;6.154;2023-05-07T04:25:34;4.77;;;3.50;;
3341;SDS011;1684;50.748;6.154;2023-05-07T04:28:03;5.07;;;3.60;;
3341;SDS011;1684;50.748;6.154;2023-05-07T04:30:32;5.43;;;3.30;;
3341;SDS011;1684;50.748;6.154;2023-05-07T04:33:00;5.23;;;3.33;;
3341;SDS011;1684;50.748;6.154;2023-05-07T04:35:29;4.50;;;3.37;;
3341;SDS011;1684;50.748;6.154;2023-05-07T04:37:58;6.43;;;3.90;;
3341;SDS011;1684;50.748;6.154;2023-05-07T04:40:26;5.27;;;3.30;;
3341;SDS011;1684;50.748;6.154;2023-05-07T04:42:54;6.70;;;3.20;;
3341;SDS011;1684;50.748;6.154;2023-05-07T04:45:22;6.10;;;4.37;;
3341;SDS011;1684;50.748;6.154;2023-05-07T04:47:51;4.67;;;2.83;;
3341;SDS011;1684;50.748;6.154;2023-05-07T04:50:19;7.00;;;4.40;;
3341;SDS011;1684;50.748;6.154;2023-05-07T04:52:51;10.77;;;4.70;;
3341;SDS011;1684;50.748;6.154;2023-05-07T04:55:19;3.40;;;2.80;;
3341;SDS011;1684;50.748;6.154;2023-05-07T04:57:47;6.30;;;3.50;;
3341;SDS011;1684;50.748;6.154;2023-05-07T05:00:16;4.73;;;3.97;;
3341;SDS011;1684;50.748;6.154;2023-05-07T05:02:45;5.73;;;3.93;;
3341;SDS011;1684;50.748;6.154;2023-05-07T05:05:14;4.80;;;3.93;;
3341;SDS011;1684;50.748;6.154;2023-05-07T05:07:42;6.43;;;4.27;;
3341;SDS011;1684;50.748;6.154;2023-05-07T05:10:12;5.47;;;3.97;;
3341;SDS011;1684;50.748;6.154;2023-05-07T05:12:40;7.23;;;3.53;;
3341;SDS011;1684;50.748;6.154;2023-05-07T05:15:09;6.60;;;4.00;;
3341;SDS011;1684;50.748;6.154;2023-05-07T05:17:37;8.63;;;3.67;;
3341;SDS011;1684;50.748;6.154;2023-05-07T05:20:06;5.43;;;4.10;;
3341;SDS011;1684;50.748;6.154;2023-05-07T05:22:36;4.80;;;3.70;;
3341;SDS011;1684;50.748;6.154;2023-05-07T05:25:04;4.43;;;3.30;;
3341;SDS011;1684;50.748;6.154;2023-05-07T05:27:34;4.20;;;2.80;;
3341;SDS011;1684;50.748;6.154;2023-05-07T05:30:03;4.10;;;2.53;;
3341;SDS011;1684;50.748;6.154;2023-05-07T05:32:31;4.77;;;2.73;;
3341;SDS011;1684;50.748;6.154;2023-05-07T05:35:00;6.40;;;2.90;;
3341;SDS011;1684;50.748;6.154;2023-05-07T05:37:28;3.73;;;2.10;;
3341;SDS011;1684;50.748;6.154;2023-05-07T05:39:57;3.43;;;2.23;;
3341;SDS011;1684;50.748;6.154;2023-05-07T05:42:25;3.33;;;2.30;;
3341;SDS011;1684;50.748;6.154;2023-05-07T05:44:55;5.47;;;3.77;;
3341;SDS011;1684;50.748;6.154;2023-05-07T05:47:23;5.17;;;4.03;;
3341;SDS011;1684;50.748;6.154;2023-05-07T05:49:51;4.60;;;3.60;;
3341;SDS011;1684;50.748;6.154;2023-05-07T05:52:20;5.27;;;4.27;;
3341;SDS011;1684;50.748;6.154;2023-05-07T05:54:49;4.17;;;2.53;;
3341;SDS011;1684;50.748;6.154;2023-05-07T05:57:18;4.67;;;2.60;;
3341;SDS011;1684;50.748;6.154;2023-05-07T05:59:46;4.07;;;2.30;;
3341;SDS011;1684;50.748;6.154;2023-05-07T06:02:16;4.00;;;2.23;;
3341;SDS011;1684;50.748;6.154;2023-05-07T06:04:44;3.50;;;2.30;;
3341;SDS011;1684;50.748;6.154;2023-05-07T06:07:12;4.67;;;3.70;;
3341;SDS011;1684;50.748;6.154;2023-05-07T06:09:41;5.80;;;4.43;;
3341;SDS011;1684;50.748;6.154;2023-05-07T06:12:09;7.03;;;4.77;;
3341;SDS011;1684;50.748;6.154;2023-05-07T06:14:38;5.70;;;4.23;;
3341;SDS011;1684;50.748;6.154;2023-05-07T06:17:07;5.77;;;4.70;;
3341;SDS011;1684;50.748;6.154;2023-05-07T06:19:36;6.87;;;4.87;;
3341;SDS011;1684;50.748;6.154;2023-05-07T06:22:05;5.40;;;2.93;;
3341;SDS011;1684;50.748;6.154;2023-05-07T06:24:33;3.90;;;2.43;;
3341;SDS011;1684;50.748;6.154;2023-05-07T06:27:01;4.13;;;2.50;;
3341;SDS011;1684;50.748;6.154;2023-05-07T06:29:29;3.60;;;2.23;;
3341;SDS011;1684;50.748;6.154;2023-05-07T06:32:05;3.67;;;2.50;;
3341;SDS011;1684;50.748;6.154;2023-05-07T06:34:34;3.27;;;2.00;;
3341;SDS011;1684;50.748;6.154;2023-05-07T06:37:04;3.40;;;2.20;;
3341;SDS011;1684;50.748;6.154;2023-05-07T06:39:32;4.10;;;2.30;;
3341;SDS011;1684;50.748;6.154;2023-05-07T06:42:00;3.50;;;1.93;;
3341;SDS011;1684;50.748;6.154;2023-05-07T06:44:30;3.20;;;1.97;;
3341;SDS011;1684;50.748;6.154;2023-05-07T06:46:59;5.43;;;2.27;;
3341;SDS011;1684;50.748;6.154;2023-05-07T06:49:27;3.17;;;1.90;;
3341;SDS011;1684;50.748;6.154;2023-05-07T06:51:55;3.30;;;1.90;;
3341;SDS011;1684;50.748;6.154;2023-05-07T06:54:25;3.53;;;2.30;;
3341;SDS011;1684;50.748;6.154;2023-05-07T06:56:53;3.60;;;2.37;;
3341;SDS011;1684;50.748;6.154;2023-05-07T06:59:24;4.40;;;1.63;;
3341;SDS011;1684;50.748;6.154;2023-05-07T07:01:52;3.90;;;2.30;;
3341;SDS011;1684;50.748;6.154;2023-05-07T07:04:21;3.87;;;2.17;;
3341;SDS011;1684;50.748;6.154;2023-05-07T07:06:51;3.23;;;2.10;;
3341;SDS011;1684;50.748;6.154;2023-05-07T07:09:19;3.20;;;1.87;;
3341;SDS011;1684;50.748;6.154;2023-05-07T07:11:50;3.30;;;2.27;;
3341;SDS011;1684;50.748;6.154;2023-05-07T07:14:18;3.87;;;2.00;;
3341;SDS011;1684;50.748;6.154;2023-05-07T07:16:47;3.50;;;2.17;;
3341;SDS011;1684;50.748;6.154;2023-05-07T07:19:15;3.97;;;1.90;;
3341;SDS011;1684;50.748;6.154;2023-05-07T07:21:43;3.37;;;2.17;;
3341;SDS011;1684;50.748;6.154;2023-05-07T07:24:12;3.07;;;1.80;;
3341;SDS011;1684;50.748;6.154;2023-05-07T07:26:45;3.60;;;2.00;;
3341;SDS011;1684;50.748;6.154;2023-05-07T07:29:14;3.90;;;1.93;;
3341;SDS011;1684;50.748;6.154;2023-05-07T07:31:44;4.00;;;2.10;;
3341;SDS011;1684;50.748;6.154;2023-05-07T07:34:13;5.00;;;2.53;;
3341;SDS011;1684;50.748;6.154;2023-05-07T07:36:41;3.27;;;2.13;;
3341;SDS011;1684;50.748;6.154;2023-05-07T07:39:12;4.97;;;2.67;;
3341;SDS011;1684;50.748;6.154;2023-05-07T07:41:40;4.50;;;2.07;;
3341;SDS011;1684;50.748;6.154;2023-05-07T07:44:09;3.80;;;2.17;;
3341;SDS011;1684;50.748;6.154;2023-05-07T07:46:43;3.03;;;1.90;;
3341;SDS011;1684;50.748;6.154;2023-05-07T07:49:11;3.73;;;2.10;;
3341;SDS011;1684;50.748;6.154;2023-05-07T07:51:39;3.80;;;2.50;;
3341;SDS011;1684;50.748;6.154;2023-05-07T07:54:08;4.60;;;2.33;;
3341;SDS011;1684;50.748;6.154;2023-05-07T07:56:36;4.53;;;2.30;;
3341;SDS011;1684;50.748;6.154;2023-05-07T07:59:04;6.93;;;2.90;;
3341;SDS011;1684;50.748;6.154;2023-05-07T08:01:32;9.10;;;2.43;;
3341;SDS011;1684;50.748;6.154;2023-05-07T08:04:02;4.30;;;2.77;;
3341;SDS011;1684;50.748;6.154;2023-05-07T08:06:32;4.10;;;2.40;;
3341;SDS011;1684;50.748;6.154;2023-05-07T08:09:00;6.07;;;2.40;;
3341;SDS011;1684;50.748;6.154;2023-05-07T08:11:28;4.10;;;2.37;;
3341;SDS011;1684;50.748;6.154;2023-05-07T08:13:56;3.90;;;2.37;;
3341;SDS011;1684;50.748;6.154;2023-05-07T08:16:25;2.90;;;1.87;;
3341;SDS011;1684;50.748;6.154;2023-05-07T08:18:56;3.87;;;2.40;;
3341;SDS011;1684;50.748;6.154;2023-05-07T08:21:26;2.90;;;1.80;;
3341;SDS011;1684;50.748;6.154;2023-05-07T08:23:54;3.87;;;1.90;;
3341;SDS011;1684;50.748;6.154;2023-05-07T08:26:22;5.27;;;2.80;;
3341;SDS011;1684;50.748;6.154;2023-05-07T08:28:50;3.93;;;2.20;;
3341;SDS011;1684;50.748;6.154;2023-05-07T08:31:18;3.40;;;1.73;;
3341;SDS011;1684;50.748;6.154;2023-05-07T08:33:47;3.10;;;2.13;;
3341;SDS011;1684;50.748;6.154;2023-05-07T08:36:15;3.20;;;1.93;;
3341;SDS011;1684;50.748;6.154;2023-05-07T08:38:46;5.50;;;2.10;;
3341;SDS011;1684;50.748;6.154;2023-05-07T08:41:15;3.93;;;2.23;;
3341;SDS011;1684;50.748;6.154;2023-05-07T08:43:44;4.47;;;2.47;;
3341;SDS011;1684;50.748;6.154;2023-05-07T08:46:15;3.67;;;2.00;;
3341;SDS011;1684;50.748;6.154;2023-05-07T08:48:44;4.70;;;2.80;;
3341;SDS011;1684;50.748;6.154;2023-05-07T08:51:13;3.53;;;2.10;;
3341;SDS011;1684;50.748;6.154;2023-05-07T08:53:41;5.53;;;2.30;;
3341;SDS011;1684;50.748;6.154;2023-05-07T08:56:11;6.27;;;2.47;;
3341;SDS011;1684;50.748;6.154;2023-05-07T08:58:41;4.43;;;2.30;;
3341;SDS011;1684;50.748;6.154;2023-05-07T09:01:10;3.70;;;2.20;;
3341;SDS011;1684;50.748;6.154;2023-05-07T09:03:40;5.70;;;1.80;;
3341;SDS011;1684;50.748;6.154;2023-05-07T09:06:09;4.60;;;2.67;;
3341;SDS011;1684;50.748;6.154;2023-05-07T09:08:37;3.40;;;2.17;;
3341;SDS011;1684;50.748;6.154;2023-05-07T09:11:06;5.63;;;2.93;;
3341;SDS011;1684;50.748;6.154;2023-05-07T09:13:35;4.30;;;2.30;;
3341;SDS011;1684;50.748;6.154;2023-05-07T09:16:09;6.43;;;2.53;;
3341;SDS011;1684;50.748;6.154;2023-05-07T09:18:41;3.90;;;2.53;;
3341;SDS011;1684;50.748;6.154;2023-05-07T09:21:09;4.50;;;3.37;;
3341;SDS011;1684;50.748;6.154;2023-05-07T09:23:38;4.83;;;3.00;;
3341;SDS011;1684;50.748;6.154;2023-05-07T09:26:07;3.77;;;2.50;;
3341;SDS011;1684;50.748;6.154;2023-05-07T09:28:40;4.23;;;2.83;;
3341;SDS011;1684;50.748;6.154;2023-05-07T09:31:08;4.30;;;2.50;;
3341;SDS011;1684;50.748;6.154;2023-05-07T09:33:36;4.50;;;1.83;;
3341;SDS011;1684;50.748;6.154;2023-05-07T09:36:05;4.70;;;2.70;;
3341;SDS011;1684;50.748;6.154;2023-05-07T09:38:35;5.50;;;5.00;;
3341;SDS011;1684;50.748;6.154;2023-05-07T09:41:04;7.47;;;3.00;;
3341;SDS011;1684;50.748;6.154;2023-05-07T09:43:32;4.10;;;2.83;;
3341;SDS011;1684;50.748;6.154;2023-05-07T09:46:07;5.40;;;3.00;;
3341;SDS011;1684;50.748;6.154;2023-05-07T09:48:37;5.50;;;3.00;;
3341;SDS011;1684;50.748;6.154;2023-05-07T09:51:08;6.03;;;3.30;;
3341;SDS011;1684;50.748;6.154;2023-05-07T09:53:37;4.47;;;3.27;;
3341;SDS011;1684;50.748;6.154;2023-05-07T09:56:06;5.40;;;2.70;;
3341;SDS011;1684;50.748;6.154;2023-05-07T09:58:36;4.47;;;3.27;;
3341;SDS011;1684;50.748;6.154;2023-05-07T10:01:06;4.50;;;3.10;;
3341;SDS011;1684;50.748;6.154;2023-05-07T10:03:35;7.20;;;2.53;;
3341;SDS011;1684;50.748;6.154;2023-05-07T10:06:04;6.30;;;3.00;;
3341;SDS011;1684;50.748;6.154;2023-05-07T10:08:33;4.20;;;3.00;;
3341;SDS011;1684;50.748;6.154;2023-05-07T10:11:01;3.10;;;2.27;;
3341;SDS011;1684;50.748;6.154;2023-05-07T10:13:29;8.23;;;3.30;;
3341;SDS011;1684;50.748;6.154;2023-05-07T10:15:57;4.03;;;2.40;;
3341;SDS011;1684;50.748;6.154;2023-05-07T10:18:27;5.20;;;3.00;;
3341;SDS011;1684;50.748;6.154;2023-05-07T10:21:01;5.60;;;2.90;;
3341;SDS011;1684;50.748;6.154;2023-05-07T10:23:30;5.47;;;2.37;;
3341;SDS011;1684;50.748;6.154;2023-05-07T10:26:00;4.10;;;2.20;;
3341;SDS011;1684;50.748;6.154;2023-05-07T10:28:30;4.17;;;3.20;;
3341;SDS011;1684;50.748;6.154;2023-05-07T10:31:04;5.13;;;3.10;;
3341;SDS011;1684;50.748;6.154;2023-05-07T10:33:37;6.20;;;3.10;;
3341;SDS011;1684;50.748;6.154;2023-05-07T10:36:06;4.00;;;1.90;;
3341;SDS011;1684;50.748;6.154;2023-05-07T10:38:34;3.97;;;2.50;;
3341;SDS011;1684;50.748;6.154;2023-05-07T10:41:03;8.73;;;2.70;;
3341;SDS011;1684;50.748;6.154;2023-05-07T10:43:40;4.20;;;2.20;;
3341;SDS011;1684;50.748;6.154;2023-05-07T10:46:09;4.10;;;2.60;;
3341;SDS011;1684;50.748;6.154;2023-05-07T10:51:27;4.83;;;3.00;;
3341;SDS011;1684;50.748;6.154;2023-05-07T10:56:39;4.13;;;2.47;;
3341;SDS011;1684;50.748;6.154;2023-05-07T11:01:57;4.37;;;2.70;;
3341;SDS011;1684;50.748;6.154;2023-05-07T11:04:28;5.53;;;2.63;;
3341;SDS011;1684;50.748;6.154;2023-05-07T11:09:55;6.37;;;2.43;;
3341;SDS011;1684;50.748;6.154;2023-05-07T11:15:14;4.67;;;2.60;;
3341;SDS011;1684;50.748;6.154;2023-05-07T11:17:52;4.87;;;2.50;;
3341;SDS011;1684;50.748;6.154;2023-05-07T11:20:20;6.50;;;3.43;;
3341;SDS011;1684;50.748;6.154;2023-05-07T11:22:48;4.60;;;2.83;;
3341;SDS011;1684;50.748;6.154;2023-05-07T11:25:20;3.30;;;2.13;;
3341;SDS011;1684;50.748;6.154;2023-05-07T11:27:48;4.40;;;2.27;;
3341;SDS011;1684;50.748;6.154;2023-05-07T11:30:16;4.00;;;2.70;;
3341;SDS011;1684;50.748;6.154;2023-05-07T11:32:47;3.30;;;2.57;;
3341;SDS011;1684;50.748;6.154;2023-05-07T11:35:15;4.90;;;3.03;;
3341;SDS011;1684;50.748;6.154;2023-05-07T11:37:43;4.67;;;2.40;;
3341;SDS011;1684;50.748;6.154;2023-05-07T11:40:13;4.30;;;2.50;;
3341;SDS011;1684;50.748;6.154;2023-05-07T11:42:42;4.73;;;2.30;;
3341;SDS011;1684;50.748;6.154;2023-05-07T11:45:11;3.60;;;2.70;;
3341;SDS011;1684;50.748;6.154;2023-05-07T11:47:41;3.70;;;2.70;;
3341;SDS011;1684;50.748;6.154;2023-05-07T11:50:09;3.17;;;2.13;;
3341;SDS011;1684;50.748;6.154;2023-05-07T11:52:37;3.57;;;2.17;;
3341;SDS011;1684;50.748;6.154;2023-05-07T11:55:06;4.67;;;2.80;;
3341;SDS011;1684;50.748;6.154;2023-05-07T11:57:35;8.27;;;2.80;;
3341;SDS011;1684;50.748;6.154;2023-05-07T12:00:05;3.73;;;2.47;;
3341;SDS011;1684;50.748;6.154;2023-05-07T12:02:34;7.20;;;2.83;;
3341;SDS011;1684;50.748;6.154;2023-05-07T12:05:02;4.60;;;2.63;;
3341;SDS011;1684;50.748;6.154;2023-05-07T12:07:32;6.13;;;3.40;;
3341;SDS011;1684;50.748;6.154;2023-05-07T12:10:03;4.20;;;2.10;;
3341;SDS011;1684;50.748;6.154;2023-05-07T12:12:37;5.30;;;2.67;;
3341;SDS011;1684;50.748;6.154;2023-05-07T12:15:08;4.47;;;2.90;;
3341;SDS011;1684;50.748;6.154;2023-05-07T12:17:37;4.20;;;2.20;;
3341;SDS011;1684;50.748;6.154;2023-05-07T12:20:06;4.07;;;2.60;;
3341;SDS011;1684;50.748;6.154;2023-05-07T12:22:35;4.20;;;2.67;;
3341;SDS011;1684;50.748;6.154;2023-05-07T12:25:03;3.93;;;2.80;;
3341;SDS011;1684;50.748;6.154;2023-05-07T12:27:33;5.03;;;2.97;;
3341;SDS011;1684;50.748;6.154;2023-05-07T12:30:04;4.83;;;2.80;;
3341;SDS011;1684;50.748;6.154;2023-05-07T12:32:34;4.07;;;2.70;;
3341;SDS011;1684;50.748;6.154;2023-05-07T12:35:05;4.87;;;3.40;;
3341;SDS011;1684;50.748;6.154;2023-05-07T12:37:33;5.10;;;3.13;;
3341;SDS011;1684;50.748;6.154;2023-05-07T12:40:03;5.37;;;3.70;;
3341;SDS011;1684;50.748;6.154;2023-05-07T12:42:35;4.80;;;3.20;;
3341;SDS011;1684;50.748;6.154;2023-05-07T12:45:10;6.63;;;3.90;;
3341;SDS011;1684;50.748;6.154;2023-05-07T12:47:43;5.43;;;3.97;;
3341;SDS011;1684;50.748;6.154;2023-05-07T12:50:12;7.70;;;4.80;;
3341;SDS011;1684;50.748;6.154;2023-05-07T12:52:41;7.63;;;4.60;;
3341;SDS011;1684;50.748;6.154;2023-05-07T12:55:12;8.47;;;6.37;;
3341;SDS011;1684;50.748;6.154;2023-05-07T12:57:41;11.10;;;5.03;;
3341;SDS011;1684;50.748;6.154;2023-05-07T13:00:09;8.70;;;5.67;;
3341;SDS011;1684;50.748;6.154;2023-05-07T13:02:38;6.80;;;5.20;;
3341;SDS011;1684;50.748;6.154;2023-05-07T13:05:08;9.73;;;7.80;;
3341;SDS011;1684;50.748;6.154;2023-05-07T13:07:37;7.27;;;5.50;;
3341;SDS011;1684;50.748;6.154;2023-05-07T13:10:07;8.17;;;5.67;;
3341;SDS011;1684;50.748;6.154;2023-05-07T13:12:35;6.63;;;5.20;;
3341;SDS011;1684;50.748;6.154;2023-05-07T13:15:04;10.43;;;8.00;;
3341;SDS011;1684;50.748;6.154;2023-05-07T13:17:32;11.13;;;5.90;;
3341;SDS011;1684;50.748;6.154;2023-05-07T13:20:01;9.80;;;5.47;;
3341;SDS011;1684;50.748;6.154;2023-05-07T13:22:31;10.50;;;6.47;;
3341;SDS011;1684;50.748;6.154;2023-05-07T13:24:59;12.33;;;6.43;;
3341;SDS011;1684;50.748;6.154;2023-05-07T13:27:28;7.90;;;5.83;;
3341;SDS011;1684;50.748;6.154;2023-05-07T13:29:57;6.57;;;5.23;;
3341;SDS011;1684;50.748;6.154;2023-05-07T13:32:25;7.83;;;6.80;;
3341;SDS011;1684;50.748;6.154;2023-05-07T13:34:53;8.77;;;6.67;;
3341;SDS011;1684;50.748;6.154;2023-05-07T13:37:21;9.23;;;6.40;;
3341;SDS011;1684;50.748;6.154;2023-05-07T13:39:51;10.27;;;5.97;;
3341;SDS011;1684;50.748;6.154;2023-05-07T13:42:19;9.80;;;6.73;;
3341;SDS011;1684;50.748;6.154;2023-05-07T13:44:47;15.40;;;7.33;;
3341;SDS011;1684;50.748;6.154;2023-05-07T13:47:16;8.20;;;5.97;;
3341;SDS011;1684;50.748;6.154;2023-05-07T13:49:44;8.23;;;6.03;;
3341;SDS011;1684;50.748;6.154;2023-05-07T13:52:12;8.00;;;5.57;;
3341;SDS011;1684;50.748;6.154;2023-05-07T13:54:40;8.50;;;5.87;;
3341;SDS011;1684;50.748;6.154;2023-05-07T13:57:10;9.63;;;5.60;;
3341;SDS011;1684;50.748;6.154;2023-05-07T13:59:38;7.20;;;5.10;;
3341;SDS011;1684;50.748;6.154;2023-05-07T14:02:06;8.90;;;5.73;;
3341;SDS011;1684;50.748;6.154;2023-05-07T14:04:35;9.37;;;6.73;;
3341;SDS011;1684;50.748;6.154;2023-05-07T14:07:03;7.97;;;6.93;;
3341;SDS011;1684;50.748;6.154;2023-05-07T14:09:32;8.03;;;5.80;;
3341;SDS011;1684;50.748;6.154;2023-05-07T14:12:00;8.03;;;5.60;;
3341;SDS011;1684;50.748;6.154;2023-05-07T14:14:30;9.47;;;5.23;;
3341;SDS011;1684;50.748;6.154;2023-05-07T14:16:58;6.70;;;5.30;;
3341;SDS011;1684;50.748;6.154;2023-05-07T14:19:27;7.87;;;5.50;;
3341;SDS011;1684;50.748;6.154;2023-05-07T14:21:55;7.77;;;4.90;;
3341;SDS011;1684;50.748;6.154;2023-05-07T14:24:24;7.13;;;4.57;;
3341;SDS011;1684;50.748;6.154;2023-05-07T14:27:04;6.57;;;4.40;;
3341;SDS011;1684;50.748;6.154;2023-05-07T14:29:34;6.20;;;4.37;;
3341;SDS011;1684;50.748;6.154;2023-05-07T14:32:02;5.10;;;4.00;;
3341;SDS011;1684;50.748;6.154;2023-05-07T14:34:31;4.80;;;4.10;;
3341;SDS011;1684;50.748;6.154;2023-05-07T14:36:59;4.83;;;4.30;;
3341;SDS011;1684;50.748;6.154;2023-05-07T14:39:28;7.00;;;4.50;;
3341;SDS011;1684;50.748;6.154;2023-05-07T14:41:56;7.90;;;4.40;;
3341;SDS011;1684;50.748;6.154;2023-05-07T14:44:25;6.60;;;4.17;;
3341;SDS011;1684;50.748;6.154;2023-05-07T14:46:54;6.37;;;4.30;;
3341;SDS011;1684;50.748;6.154;2023-05-07T14:49:27;6.93;;;4.03;;
3341;SDS011;1684;50.748;6.154;2023-05-07T14:51:57;7.10;;;4.97;;
3341;SDS011;1684;50.748;6.154;2023-05-07T14:54:26;6.13;;;4.10;;
3341;SDS011;1684;50.748;6.154;2023-05-07T14:56:55;7.80;;;4.40;;
3341;SDS011;1684;50.748;6.154;2023-05-07T14:59:23;5.80;;;4.13;;
3341;SDS011;1684;50.748;6.154;2023-05-07T15:01:51;6.13;;;4.03;;
3341;SDS011;1684;50.748;6.154;2023-05-07T15:04:21;9.07;;;4.40;;
3341;SDS011;1684;50.748;6.154;2023-05-07T15:06:49;7.30;;;4.40;;
3341;SDS011;1684;50.748;6.154;2023-05-07T15:09:19;8.10;;;4.40;;
3341;SDS011;1684;50.748;6.154;2023-05-07T15:11:48;5.77;;;4.17;;
3341;SDS011;1684;50.748;6.154;2023-05-07T15:14:16;4.97;;;4.37;;
3341;SDS011;1684;50.748;6.154;2023-05-07T15:16:44;6.37;;;4.10;;
3341;SDS011;1684;50.748;6.154;2023-05-07T15:19:12;6.80;;;3.90;;
3341;SDS011;1684;50.748;6.154;2023-05-07T15:21:43;5.43;;;4.33;;
3341;SDS011;1684;50.748;6.154;2023-05-07T15:24:12;6.40;;;4.40;;
3341;SDS011;1684;50.748;6.154;2023-05-07T15:26:40;7.90;;;5.43;;
3341;SDS011;1684;50.748;6.154;2023-05-07T15:29:08;5.40;;;4.20;;
3341;SDS011;1684;50.748;6.154;2023-05-07T15:31:36;7.87;;;4.00;;
3341;SDS011;1684;50.748;6.154;2023-05-07T15:34:05;6.50;;;4.30;;
3341;SDS011;1684;50.748;6.154;2023-05-07T15:36:33;5.50;;;3.70;;
3341;SDS011;1684;50.748;6.154;2023-05-07T15:39:03;5.67;;;3.80;;